sensor_id;sensor_type;location;lat;lon;timestamp;P1;durP1;ratioP1;P2;durP2;ratioP2
67074;SDS011;53990;50.334;18.640;2023-03-14T00:00:13;16.60;;;8.60;;
67074;SDS011;53990;50.334;18.640;2023-03-14T00:03:00;17.50;;;8.90;;
67074;SDS011;53990;50.334;18.640;2023-03-14T00:05:28;13.20;;;7.60;;
67074;SDS011;53990;50.334;18.640;2023-03-14T00:07:55;15.50;;;8.10;;
67074;SDS011;53990;50.334;18.640;2023-03-14T00:10:22;16.60;;;7.80;;
67074;SDS011;53990;50.334;18.640;2023-03-14T00:12:50;14.70;;;7.90;;
67074;SDS011;53990;50.334;18.640;2023-03-14T00:15:17;14.60;;;7.70;;
67074;SDS011;53990;50.334;18.640;2023-03-14T00:17:44;12.20;;;7.20;;
67074;SDS011;53990;50.334;18.640;2023-03-14T00:20:12;14.00;;;7.30;;
67074;SDS011;53990;50.334;18.640;2023-03-14T00:22:40;15.30;;;7.40;;
67074;SDS011;53990;50.334;18.640;2023-03-14T00:25:09;16.40;;;7.60;;
67074;SDS011;53990;50.334;18.640;2023-03-14T00:27:37;15.80;;;7.80;;
67074;SDS011;53990;50.334;18.640;2023-03-14T00:30:06;12.20;;;7.10;;
67074;SDS011;53990;50.334;18.640;2023-03-14T00:32:35;12.30;;;7.30;;
67074;SDS011;53990;50.334;18.640;2023-03-14T00:35:03;11.40;;;6.60;;
67074;SDS011;53990;50.334;18.640;2023-03-14T00:37:30;13.80;;;6.50;;
67074;SDS011;53990;50.334;18.640;2023-03-14T00:39:57;12.70;;;6.40;;
67074;SDS011;53990;50.334;18.640;2023-03-14T00:42:25;12.20;;;6.50;;
67074;SDS011;53990;50.334;18.640;2023-03-14T00:44:52;13.60;;;6.90;;
67074;SDS011;53990;50.334;18.640;2023-03-14T00:47:20;12.30;;;6.60;;
67074;SDS011;53990;50.334;18.640;2023-03-14T00:49:47;11.00;;;6.30;;
67074;SDS011;53990;50.334;18.640;2023-03-14T00:52:14;11.60;;;6.80;;
67074;SDS011;53990;50.334;18.640;2023-03-14T00:54:42;11.90;;;5.90;;
67074;SDS011;53990;50.334;18.640;2023-03-14T00:57:09;12.00;;;6.30;;
67074;SDS011;53990;50.334;18.640;2023-03-14T00:59:36;9.00;;;5.50;;
67074;SDS011;53990;50.334;18.640;2023-03-14T01:02:03;13.70;;;5.60;;
67074;SDS011;53990;50.334;18.640;2023-03-14T01:04:31;9.60;;;5.40;;
67074;SDS011;53990;50.334;18.640;2023-03-14T01:06:58;9.80;;;4.90;;
67074;SDS011;53990;50.334;18.640;2023-03-14T01:09:25;13.20;;;5.30;;
67074;SDS011;53990;50.334;18.640;2023-03-14T01:11:53;9.70;;;4.70;;
67074;SDS011;53990;50.334;18.640;2023-03-14T01:14:20;9.70;;;4.60;;
67074;SDS011;53990;50.334;18.640;2023-03-14T01:16:47;9.20;;;4.50;;
67074;SDS011;53990;50.334;18.640;2023-03-14T01:19:14;9.90;;;4.70;;
67074;SDS011;53990;50.334;18.640;2023-03-14T01:21:42;8.70;;;3.90;;
67074;SDS011;53990;50.334;18.640;2023-03-14T01:24:11;8.30;;;4.90;;
67074;SDS011;53990;50.334;18.640;2023-03-14T01:26:38;9.30;;;4.20;;
67074;SDS011;53990;50.334;18.640;2023-03-14T01:29:05;7.50;;;4.20;;
67074;SDS011;53990;50.334;18.640;2023-03-14T01:31:33;10.50;;;4.10;;
67074;SDS011;53990;50.334;18.640;2023-03-14T01:34:00;7.40;;;4.10;;
67074;SDS011;53990;50.334;18.640;2023-03-14T01:36:28;9.60;;;3.70;;
67074;SDS011;53990;50.334;18.640;2023-03-14T01:38:55;7.90;;;4.00;;
67074;SDS011;53990;50.334;18.640;2023-03-14T01:41:24;7.90;;;4.00;;
67074;SDS011;53990;50.334;18.640;2023-03-14T01:43:52;7.30;;;4.00;;
67074;SDS011;53990;50.334;18.640;2023-03-14T01:49:07;7.50;;;4.30;;
67074;SDS011;53990;50.334;18.640;2023-03-14T01:56:36;9.00;;;4.50;;
67074;SDS011;53990;50.334;18.640;2023-03-14T01:59:08;8.90;;;4.70;;
67074;SDS011;53990;50.334;18.640;2023-03-14T02:01:36;6.60;;;4.10;;
67074;SDS011;53990;50.334;18.640;2023-03-14T02:04:05;10.70;;;4.80;;
67074;SDS011;53990;50.334;18.640;2023-03-14T02:06:50;9.20;;;4.60;;
67074;SDS011;53990;50.334;18.640;2023-03-14T02:09:18;9.00;;;5.40;;
67074;SDS011;53990;50.334;18.640;2023-03-14T02:11:46;7.90;;;4.80;;
67074;SDS011;53990;50.334;18.640;2023-03-14T02:14:21;7.90;;;4.60;;
67074;SDS011;53990;50.334;18.640;2023-03-14T02:16:52;9.00;;;4.50;;
67074;SDS011;53990;50.334;18.640;2023-03-14T02:19:26;9.30;;;5.10;;
67074;SDS011;53990;50.334;18.640;2023-03-14T02:22:00;10.50;;;4.90;;
67074;SDS011;53990;50.334;18.640;2023-03-14T02:27:22;9.90;;;5.10;;
67074;SDS011;53990;50.334;18.640;2023-03-14T02:32:18;8.70;;;4.70;;
67074;SDS011;53990;50.334;18.640;2023-03-14T02:34:49;10.50;;;4.40;;
67074;SDS011;53990;50.334;18.640;2023-03-14T02:37:19;10.50;;;4.70;;
67074;SDS011;53990;50.334;18.640;2023-03-14T02:39:48;8.50;;;5.10;;
67074;SDS011;53990;50.334;18.640;2023-03-14T02:42:18;9.30;;;5.20;;
67074;SDS011;53990;50.334;18.640;2023-03-14T02:45:33;9.00;;;4.50;;
67074;SDS011;53990;50.334;18.640;2023-03-14T02:47:43;8.50;;;4.70;;
67074;SDS011;53990;50.334;18.640;2023-03-14T02:50:15;10.00;;;5.40;;
67074;SDS011;53990;50.334;18.640;2023-03-14T02:52:44;8.30;;;5.30;;
67074;SDS011;53990;50.334;18.640;2023-03-14T02:55:11;9.30;;;5.20;;
67074;SDS011;53990;50.334;18.640;2023-03-14T02:57:39;13.10;;;5.50;;
67074;SDS011;53990;50.334;18.640;2023-03-14T03:00:06;11.80;;;5.40;;
67074;SDS011;53990;50.334;18.640;2023-03-14T03:02:35;9.50;;;5.10;;
67074;SDS011;53990;50.334;18.640;2023-03-14T03:05:02;10.80;;;4.90;;
67074;SDS011;53990;50.334;18.640;2023-03-14T03:07:30;9.30;;;5.20;;
67074;SDS011;53990;50.334;18.640;2023-03-14T03:09:57;14.20;;;5.90;;
67074;SDS011;53990;50.334;18.640;2023-03-14T03:12:24;11.20;;;5.60;;
67074;SDS011;53990;50.334;18.640;2023-03-14T03:14:51;12.90;;;6.60;;
67074;SDS011;53990;50.334;18.640;2023-03-14T03:17:19;9.00;;;5.20;;
67074;SDS011;53990;50.334;18.640;2023-03-14T03:19:46;10.10;;;5.60;;
67074;SDS011;53990;50.334;18.640;2023-03-14T03:22:13;16.70;;;8.70;;
67074;SDS011;53990;50.334;18.640;2023-03-14T03:24:40;13.60;;;7.30;;
67074;SDS011;53990;50.334;18.640;2023-03-14T03:27:08;16.10;;;8.00;;
67074;SDS011;53990;50.334;18.640;2023-03-14T03:29:35;21.90;;;9.70;;
67074;SDS011;53990;50.334;18.640;2023-03-14T03:32:02;28.40;;;13.80;;
67074;SDS011;53990;50.334;18.640;2023-03-14T03:34:29;32.70;;;15.00;;
67074;SDS011;53990;50.334;18.640;2023-03-14T03:36:57;24.70;;;12.90;;
67074;SDS011;53990;50.334;18.640;2023-03-14T03:39:25;33.20;;;17.20;;
67074;SDS011;53990;50.334;18.640;2023-03-14T03:41:52;30.40;;;15.30;;
67074;SDS011;53990;50.334;18.640;2023-03-14T03:44:19;26.90;;;13.90;;
67074;SDS011;53990;50.334;18.640;2023-03-14T03:46:46;30.10;;;13.10;;
67074;SDS011;53990;50.334;18.640;2023-03-14T03:49:14;21.80;;;11.10;;
67074;SDS011;53990;50.334;18.640;2023-03-14T03:51:41;20.20;;;10.00;;
67074;SDS011;53990;50.334;18.640;2023-03-14T03:54:08;17.50;;;9.70;;
67074;SDS011;53990;50.334;18.640;2023-03-14T03:56:35;21.50;;;10.10;;
67074;SDS011;53990;50.334;18.640;2023-03-14T03:59:03;19.30;;;9.10;;
67074;SDS011;53990;50.334;18.640;2023-03-14T04:01:30;17.20;;;9.50;;
67074;SDS011;53990;50.334;18.640;2023-03-14T04:03:57;23.20;;;10.80;;
67074;SDS011;53990;50.334;18.640;2023-03-14T04:06:24;19.90;;;10.10;;
67074;SDS011;53990;50.334;18.640;2023-03-14T04:08:53;14.00;;;7.50;;
67074;SDS011;53990;50.334;18.640;2023-03-14T04:11:20;13.40;;;6.40;;
67074;SDS011;53990;50.334;18.640;2023-03-14T04:13:48;11.90;;;6.10;;
67074;SDS011;53990;50.334;18.640;2023-03-14T04:16:20;14.20;;;6.80;;
67074;SDS011;53990;50.334;18.640;2023-03-14T04:18:48;15.60;;;6.80;;
67074;SDS011;53990;50.334;18.640;2023-03-14T04:21:16;12.60;;;7.00;;
67074;SDS011;53990;50.334;18.640;2023-03-14T04:23:44;12.30;;;6.60;;
67074;SDS011;53990;50.334;18.640;2023-03-14T04:26:11;16.70;;;7.70;;
67074;SDS011;53990;50.334;18.640;2023-03-14T04:28:39;13.60;;;7.30;;
67074;SDS011;53990;50.334;18.640;2023-03-14T04:31:10;10.70;;;6.00;;
67074;SDS011;53990;50.334;18.640;2023-03-14T04:33:38;12.80;;;6.00;;
67074;SDS011;53990;50.334;18.640;2023-03-14T04:36:06;14.10;;;6.50;;
67074;SDS011;53990;50.334;18.640;2023-03-14T04:38:34;11.10;;;6.00;;
67074;SDS011;53990;50.334;18.640;2023-03-14T04:41:02;16.30;;;6.70;;
67074;SDS011;53990;50.334;18.640;2023-03-14T04:43:29;11.70;;;6.30;;
67074;SDS011;53990;50.334;18.640;2023-03-14T04:45:57;10.70;;;5.90;;
67074;SDS011;53990;50.334;18.640;2023-03-14T04:48:25;13.80;;;6.80;;
67074;SDS011;53990;50.334;18.640;2023-03-14T04:50:53;15.30;;;7.30;;
67074;SDS011;53990;50.334;18.640;2023-03-14T04:53:20;13.70;;;7.20;;
67074;SDS011;53990;50.334;18.640;2023-03-14T04:55:51;14.00;;;6.60;;
67074;SDS011;53990;50.334;18.640;2023-03-14T04:58:20;11.30;;;6.70;;
67074;SDS011;53990;50.334;18.640;2023-03-14T05:00:47;10.20;;;6.40;;
67074;SDS011;53990;50.334;18.640;2023-03-14T05:03:17;14.50;;;7.20;;
67074;SDS011;53990;50.334;18.640;2023-03-14T05:05:44;13.30;;;6.70;;
67074;SDS011;53990;50.334;18.640;2023-03-14T05:08:12;11.50;;;6.90;;
67074;SDS011;53990;50.334;18.640;2023-03-14T05:10:39;13.30;;;7.40;;
67074;SDS011;53990;50.334;18.640;2023-03-14T05:13:07;12.80;;;7.40;;
67074;SDS011;53990;50.334;18.640;2023-03-14T05:15:34;13.40;;;7.80;;
67074;SDS011;53990;50.334;18.640;2023-03-14T05:18:01;16.20;;;8.70;;
67074;SDS011;53990;50.334;18.640;2023-03-14T05:20:30;20.10;;;10.20;;
67074;SDS011;53990;50.334;18.640;2023-03-14T05:22:57;27.20;;;13.20;;
67074;SDS011;53990;50.334;18.640;2023-03-14T05:25:24;23.60;;;11.40;;
67074;SDS011;53990;50.334;18.640;2023-03-14T05:27:56;21.80;;;10.70;;
67074;SDS011;53990;50.334;18.640;2023-03-14T05:30:23;26.20;;;11.60;;
67074;SDS011;53990;50.334;18.640;2023-03-14T05:32:50;21.50;;;11.30;;
67074;SDS011;53990;50.334;18.640;2023-03-14T05:35:18;22.20;;;12.90;;
67074;SDS011;53990;50.334;18.640;2023-03-14T05:37:45;24.70;;;12.60;;
67074;SDS011;53990;50.334;18.640;2023-03-14T05:40:13;23.90;;;12.70;;
67074;SDS011;53990;50.334;18.640;2023-03-14T05:42:40;22.80;;;11.90;;
67074;SDS011;53990;50.334;18.640;2023-03-14T05:45:07;29.10;;;15.70;;
67074;SDS011;53990;50.334;18.640;2023-03-14T05:47:34;24.70;;;12.20;;
67074;SDS011;53990;50.334;18.640;2023-03-14T05:50:02;25.90;;;12.30;;
67074;SDS011;53990;50.334;18.640;2023-03-14T05:52:29;23.60;;;12.50;;
67074;SDS011;53990;50.334;18.640;2023-03-14T05:54:56;19.80;;;11.20;;
67074;SDS011;53990;50.334;18.640;2023-03-14T05:57:24;20.00;;;10.30;;
67074;SDS011;53990;50.334;18.640;2023-03-14T05:59:51;23.60;;;11.60;;
67074;SDS011;53990;50.334;18.640;2023-03-14T06:02:18;19.30;;;11.20;;
67074;SDS011;53990;50.334;18.640;2023-03-14T06:04:46;24.80;;;11.50;;
67074;SDS011;53990;50.334;18.640;2023-03-14T06:07:13;23.00;;;12.40;;
67074;SDS011;53990;50.334;18.640;2023-03-14T06:09:40;28.60;;;14.70;;
67074;SDS011;53990;50.334;18.640;2023-03-14T06:12:08;22.60;;;12.50;;
67074;SDS011;53990;50.334;18.640;2023-03-14T06:14:35;21.10;;;12.90;;
67074;SDS011;53990;50.334;18.640;2023-03-14T06:17:02;22.80;;;12.20;;
67074;SDS011;53990;50.334;18.640;2023-03-14T06:19:30;19.70;;;11.90;;
67074;SDS011;53990;50.334;18.640;2023-03-14T06:21:57;19.40;;;10.50;;
67074;SDS011;53990;50.334;18.640;2023-03-14T06:24:24;19.00;;;10.30;;
67074;SDS011;53990;50.334;18.640;2023-03-14T06:26:51;20.20;;;10.70;;
67074;SDS011;53990;50.334;18.640;2023-03-14T06:29:19;27.30;;;13.40;;
67074;SDS011;53990;50.334;18.640;2023-03-14T06:31:46;23.80;;;12.40;;
67074;SDS011;53990;50.334;18.640;2023-03-14T06:34:13;23.60;;;12.60;;
67074;SDS011;53990;50.334;18.640;2023-03-14T06:36:40;24.40;;;12.20;;
67074;SDS011;53990;50.334;18.640;2023-03-14T06:39:08;23.50;;;12.90;;
67074;SDS011;53990;50.334;18.640;2023-03-14T06:41:35;24.00;;;12.60;;
67074;SDS011;53990;50.334;18.640;2023-03-14T06:44:02;21.90;;;12.20;;
67074;SDS011;53990;50.334;18.640;2023-03-14T06:46:29;23.60;;;12.90;;
67074;SDS011;53990;50.334;18.640;2023-03-14T06:48:57;23.20;;;13.00;;
67074;SDS011;53990;50.334;18.640;2023-03-14T06:51:24;26.10;;;13.50;;
67074;SDS011;53990;50.334;18.640;2023-03-14T06:53:51;24.50;;;13.40;;
67074;SDS011;53990;50.334;18.640;2023-03-14T06:56:19;25.70;;;13.30;;
67074;SDS011;53990;50.334;18.640;2023-03-14T06:58:46;30.00;;;14.40;;
67074;SDS011;53990;50.334;18.640;2023-03-14T07:01:23;24.50;;;13.30;;
67074;SDS011;53990;50.334;18.640;2023-03-14T07:06:17;21.80;;;13.00;;
67074;SDS011;53990;50.334;18.640;2023-03-14T07:08:45;24.80;;;13.00;;
67074;SDS011;53990;50.334;18.640;2023-03-14T07:11:12;22.60;;;11.70;;
67074;SDS011;53990;50.334;18.640;2023-03-14T07:13:42;24.40;;;11.90;;
67074;SDS011;53990;50.334;18.640;2023-03-14T07:16:10;18.10;;;10.10;;
67074;SDS011;53990;50.334;18.640;2023-03-14T07:18:37;18.60;;;10.30;;
67074;SDS011;53990;50.334;18.640;2023-03-14T07:21:06;19.20;;;10.20;;
67074;SDS011;53990;50.334;18.640;2023-03-14T07:23:33;22.00;;;10.60;;
67074;SDS011;53990;50.334;18.640;2023-03-14T07:26:01;19.50;;;10.20;;
67074;SDS011;53990;50.334;18.640;2023-03-14T07:28:28;19.70;;;10.80;;
67074;SDS011;53990;50.334;18.640;2023-03-14T07:30:56;21.20;;;11.20;;
67074;SDS011;53990;50.334;18.640;2023-03-14T07:33:23;20.70;;;11.50;;
67074;SDS011;53990;50.334;18.640;2023-03-14T07:35:50;22.00;;;11.40;;
67074;SDS011;53990;50.334;18.640;2023-03-14T07:38:18;21.10;;;11.10;;
67074;SDS011;53990;50.334;18.640;2023-03-14T07:40:45;22.10;;;12.00;;
67074;SDS011;53990;50.334;18.640;2023-03-14T07:43:12;23.80;;;12.20;;
67074;SDS011;53990;50.334;18.640;2023-03-14T07:45:39;21.90;;;12.30;;
67074;SDS011;53990;50.334;18.640;2023-03-14T07:48:07;22.80;;;11.60;;
67074;SDS011;53990;50.334;18.640;2023-03-14T07:50:34;19.10;;;10.80;;
67074;SDS011;53990;50.334;18.640;2023-03-14T07:53:01;15.20;;;8.00;;
67074;SDS011;53990;50.334;18.640;2023-03-14T07:55:28;15.30;;;8.00;;
67074;SDS011;53990;50.334;18.640;2023-03-14T07:57:56;13.70;;;6.70;;
67074;SDS011;53990;50.334;18.640;2023-03-14T08:00:23;11.40;;;5.50;;
67074;SDS011;53990;50.334;18.640;2023-03-14T08:02:50;11.20;;;5.90;;
67074;SDS011;53990;50.334;18.640;2023-03-14T08:05:18;13.30;;;5.90;;
67074;SDS011;53990;50.334;18.640;2023-03-14T08:07:45;14.10;;;7.10;;
67074;SDS011;53990;50.334;18.640;2023-03-14T08:10:12;12.30;;;6.30;;
67074;SDS011;53990;50.334;18.640;2023-03-14T08:12:42;10.70;;;5.00;;
67074;SDS011;53990;50.334;18.640;2023-03-14T08:15:10;12.50;;;5.40;;
67074;SDS011;53990;50.334;18.640;2023-03-14T08:17:37;9.90;;;5.30;;
67074;SDS011;53990;50.334;18.640;2023-03-14T08:20:05;11.00;;;5.10;;
67074;SDS011;53990;50.334;18.640;2023-03-14T08:22:37;8.00;;;5.20;;
67074;SDS011;53990;50.334;18.640;2023-03-14T08:25:05;9.90;;;5.20;;
67074;SDS011;53990;50.334;18.640;2023-03-14T08:27:33;9.50;;;4.10;;
67074;SDS011;53990;50.334;18.640;2023-03-14T08:30:00;9.10;;;4.60;;
67074;SDS011;53990;50.334;18.640;2023-03-14T08:32:27;10.10;;;5.00;;
67074;SDS011;53990;50.334;18.640;2023-03-14T08:34:54;10.10;;;4.60;;
67074;SDS011;53990;50.334;18.640;2023-03-14T08:37:22;11.90;;;5.20;;
67074;SDS011;53990;50.334;18.640;2023-03-14T08:39:49;8.60;;;4.70;;
67074;SDS011;53990;50.334;18.640;2023-03-14T08:42:17;9.50;;;4.40;;
67074;SDS011;53990;50.334;18.640;2023-03-14T08:44:44;8.90;;;4.50;;
67074;SDS011;53990;50.334;18.640;2023-03-14T08:47:12;10.90;;;4.30;;
67074;SDS011;53990;50.334;18.640;2023-03-14T08:49:39;9.00;;;4.00;;
67074;SDS011;53990;50.334;18.640;2023-03-14T08:52:06;9.10;;;4.50;;
67074;SDS011;53990;50.334;18.640;2023-03-14T08:54:34;6.00;;;3.70;;
67074;SDS011;53990;50.334;18.640;2023-03-14T08:57:01;7.50;;;4.50;;
67074;SDS011;53990;50.334;18.640;2023-03-14T08:59:28;9.70;;;4.50;;
67074;SDS011;53990;50.334;18.640;2023-03-14T09:01:55;10.20;;;4.50;;
67074;SDS011;53990;50.334;18.640;2023-03-14T09:04:23;8.00;;;4.00;;
67074;SDS011;53990;50.334;18.640;2023-03-14T09:06:50;8.70;;;4.10;;
67074;SDS011;53990;50.334;18.640;2023-03-14T09:09:17;10.70;;;4.20;;
67074;SDS011;53990;50.334;18.640;2023-03-14T09:11:44;9.00;;;4.60;;
67074;SDS011;53990;50.334;18.640;2023-03-14T09:14:12;6.70;;;4.10;;
67074;SDS011;53990;50.334;18.640;2023-03-14T09:16:39;9.70;;;4.30;;
67074;SDS011;53990;50.334;18.640;2023-03-14T09:19:06;7.60;;;3.60;;
67074;SDS011;53990;50.334;18.640;2023-03-14T09:21:33;10.20;;;5.00;;
67074;SDS011;53990;50.334;18.640;2023-03-14T09:24:01;6.60;;;4.00;;
67074;SDS011;53990;50.334;18.640;2023-03-14T09:26:28;8.70;;;4.10;;
67074;SDS011;53990;50.334;18.640;2023-03-14T09:28:56;10.00;;;3.90;;
67074;SDS011;53990;50.334;18.640;2023-03-14T09:31:23;8.90;;;4.50;;
67074;SDS011;53990;50.334;18.640;2023-03-14T09:33:50;7.20;;;4.30;;
67074;SDS011;53990;50.334;18.640;2023-03-14T09:36:17;7.40;;;4.30;;
67074;SDS011;53990;50.334;18.640;2023-03-14T09:38:45;7.40;;;4.00;;
67074;SDS011;53990;50.334;18.640;2023-03-14T09:41:27;8.90;;;4.20;;
67074;SDS011;53990;50.334;18.640;2023-03-14T09:46:43;7.50;;;3.70;;
67074;SDS011;53990;50.334;18.640;2023-03-14T09:49:19;8.40;;;4.40;;
67074;SDS011;53990;50.334;18.640;2023-03-14T09:51:49;9.10;;;4.80;;
67074;SDS011;53990;50.334;18.640;2023-03-14T09:54:39;12.50;;;7.60;;
67074;SDS011;53990;50.334;18.640;2023-03-14T09:57:13;7.20;;;4.20;;
67074;SDS011;53990;50.334;18.640;2023-03-14T09:59:43;8.70;;;4.60;;
67074;SDS011;53990;50.334;18.640;2023-03-14T10:02:21;8.20;;;4.60;;
67074;SDS011;53990;50.334;18.640;2023-03-14T10:04:51;9.60;;;4.50;;
67074;SDS011;53990;50.334;18.640;2023-03-14T10:07:25;8.90;;;4.40;;
67074;SDS011;53990;50.334;18.640;2023-03-14T10:09:55;8.60;;;4.20;;
67074;SDS011;53990;50.334;18.640;2023-03-14T10:12:33;11.30;;;4.60;;
67074;SDS011;53990;50.334;18.640;2023-03-14T10:15:07;8.40;;;4.40;;
67074;SDS011;53990;50.334;18.640;2023-03-14T10:17:43;14.10;;;4.90;;
67074;SDS011;53990;50.334;18.640;2023-03-14T10:20:33;6.80;;;3.90;;
67074;SDS011;53990;50.334;18.640;2023-03-14T10:23:06;8.30;;;4.40;;
67074;SDS011;53990;50.334;18.640;2023-03-14T10:25:36;7.20;;;4.20;;
67074;SDS011;53990;50.334;18.640;2023-03-14T10:28:04;7.00;;;4.40;;
67074;SDS011;53990;50.334;18.640;2023-03-14T10:33:12;10.90;;;5.30;;
67074;SDS011;53990;50.334;18.640;2023-03-14T10:35:51;9.10;;;4.80;;
67074;SDS011;53990;50.334;18.640;2023-03-14T10:38:19;8.60;;;4.60;;
67074;SDS011;53990;50.334;18.640;2023-03-14T10:40:49;7.00;;;4.10;;
67074;SDS011;53990;50.334;18.640;2023-03-14T10:43:22;5.90;;;4.10;;
67074;SDS011;53990;50.334;18.640;2023-03-14T10:46:17;8.40;;;4.30;;
67074;SDS011;53990;50.334;18.640;2023-03-14T10:48:45;11.00;;;5.10;;
67074;SDS011;53990;50.334;18.640;2023-03-14T10:53:46;8.20;;;4.00;;
67074;SDS011;53990;50.334;18.640;2023-03-14T10:56:16;8.90;;;4.50;;
67074;SDS011;53990;50.334;18.640;2023-03-14T10:58:46;8.90;;;4.40;;
67074;SDS011;53990;50.334;18.640;2023-03-14T11:07:33;8.80;;;4.90;;
67074;SDS011;53990;50.334;18.640;2023-03-14T11:15:47;7.30;;;5.20;;
67074;SDS011;53990;50.334;18.640;2023-03-14T11:21:11;12.10;;;5.70;;
67074;SDS011;53990;50.334;18.640;2023-03-14T11:26:33;9.40;;;5.40;;
67074;SDS011;53990;50.334;18.640;2023-03-14T11:32:22;10.20;;;5.20;;
67074;SDS011;53990;50.334;18.640;2023-03-14T11:34:54;9.20;;;5.10;;
67074;SDS011;53990;50.334;18.640;2023-03-14T11:37:36;10.40;;;6.00;;
67074;SDS011;53990;50.334;18.640;2023-03-14T11:40:16;9.00;;;5.40;;
67074;SDS011;53990;50.334;18.640;2023-03-14T11:42:49;12.00;;;6.40;;
67074;SDS011;53990;50.334;18.640;2023-03-14T11:45:39;10.10;;;5.80;;
67074;SDS011;53990;50.334;18.640;2023-03-14T11:48:19;11.00;;;6.50;;
67074;SDS011;53990;50.334;18.640;2023-03-14T11:50:50;9.30;;;6.20;;
67074;SDS011;53990;50.334;18.640;2023-03-14T11:53:19;10.70;;;7.90;;
67074;SDS011;53990;50.334;18.640;2023-03-14T11:55:49;8.80;;;6.00;;
67074;SDS011;53990;50.334;18.640;2023-03-14T11:58:26;8.90;;;5.60;;
67074;SDS011;53990;50.334;18.640;2023-03-14T12:00:55;10.80;;;5.80;;
67074;SDS011;53990;50.334;18.640;2023-03-14T12:03:36;9.80;;;6.10;;
67074;SDS011;53990;50.334;18.640;2023-03-14T12:06:25;8.70;;;6.00;;
67074;SDS011;53990;50.334;18.640;2023-03-14T12:08:56;9.60;;;6.10;;
67074;SDS011;53990;50.334;18.640;2023-03-14T12:11:45;10.70;;;6.50;;
67074;SDS011;53990;50.334;18.640;2023-03-14T12:14:19;11.90;;;6.80;;
67074;SDS011;53990;50.334;18.640;2023-03-14T12:16:48;12.60;;;7.00;;
67074;SDS011;53990;50.334;18.640;2023-03-14T12:22:00;12.50;;;7.30;;
67074;SDS011;53990;50.334;18.640;2023-03-14T12:24:32;11.90;;;7.60;;
67074;SDS011;53990;50.334;18.640;2023-03-14T12:27:02;10.80;;;7.10;;
67074;SDS011;53990;50.334;18.640;2023-03-14T12:29:30;16.50;;;7.30;;
67074;SDS011;53990;50.334;18.640;2023-03-14T12:34:48;12.00;;;7.40;;
67074;SDS011;53990;50.334;18.640;2023-03-14T12:37:30;14.10;;;8.80;;
67074;SDS011;53990;50.334;18.640;2023-03-14T12:40:15;11.20;;;6.60;;
67074;SDS011;53990;50.334;18.640;2023-03-14T12:43:01;13.60;;;7.60;;
67074;SDS011;53990;50.334;18.640;2023-03-14T12:45:34;11.50;;;6.40;;
67074;SDS011;53990;50.334;18.640;2023-03-14T12:48:15;10.20;;;6.40;;
67074;SDS011;53990;50.334;18.640;2023-03-14T12:51:02;11.60;;;6.60;;
67074;SDS011;53990;50.334;18.640;2023-03-14T12:53:36;8.90;;;6.20;;
67074;SDS011;53990;50.334;18.640;2023-03-14T12:59:34;10.20;;;6.70;;
67074;SDS011;53990;50.334;18.640;2023-03-14T13:04:35;11.50;;;6.20;;
67074;SDS011;53990;50.334;18.640;2023-03-14T13:07:03;11.30;;;6.40;;
67074;SDS011;53990;50.334;18.640;2023-03-14T13:12:14;11.40;;;6.70;;
67074;SDS011;53990;50.334;18.640;2023-03-14T13:14:49;10.20;;;7.10;;
67074;SDS011;53990;50.334;18.640;2023-03-14T13:17:26;13.80;;;6.40;;
67074;SDS011;53990;50.334;18.640;2023-03-14T13:19:57;9.20;;;6.10;;
67074;SDS011;53990;50.334;18.640;2023-03-14T13:22:30;10.40;;;6.50;;
67074;SDS011;53990;50.334;18.640;2023-03-14T13:25:12;11.70;;;7.70;;
67074;SDS011;53990;50.334;18.640;2023-03-14T13:27:41;9.30;;;6.60;;
67074;SDS011;53990;50.334;18.640;2023-03-14T13:30:29;9.50;;;7.00;;
67074;SDS011;53990;50.334;18.640;2023-03-14T13:33:04;12.90;;;7.60;;
67074;SDS011;53990;50.334;18.640;2023-03-14T13:35:56;10.40;;;7.10;;
67074;SDS011;53990;50.334;18.640;2023-03-14T13:38:27;10.10;;;6.30;;
67074;SDS011;53990;50.334;18.640;2023-03-14T13:40:55;17.70;;;9.50;;
67074;SDS011;53990;50.334;18.640;2023-03-14T13:43:34;28.80;;;10.90;;
67074;SDS011;53990;50.334;18.640;2023-03-14T13:46:05;19.00;;;8.60;;
67074;SDS011;53990;50.334;18.640;2023-03-14T13:48:43;35.40;;;13.70;;
67074;SDS011;53990;50.334;18.640;2023-03-14T13:51:13;31.40;;;11.80;;
67074;SDS011;53990;50.334;18.640;2023-03-14T13:53:48;13.10;;;7.30;;
67074;SDS011;53990;50.334;18.640;2023-03-14T13:56:24;9.30;;;6.40;;
67074;SDS011;53990;50.334;18.640;2023-03-14T13:58:51;10.80;;;7.70;;
67074;SDS011;53990;50.334;18.640;2023-03-14T14:03:51;13.40;;;7.60;;
67074;SDS011;53990;50.334;18.640;2023-03-14T14:06:26;11.60;;;8.30;;
67074;SDS011;53990;50.334;18.640;2023-03-14T14:08:56;20.00;;;11.40;;
67074;SDS011;53990;50.334;18.640;2023-03-14T14:11:51;17.80;;;10.30;;
67074;SDS011;53990;50.334;18.640;2023-03-14T14:14:32;15.80;;;10.00;;
67074;SDS011;53990;50.334;18.640;2023-03-14T14:17:08;14.80;;;9.70;;
67074;SDS011;53990;50.334;18.640;2023-03-14T14:19:37;16.70;;;9.40;;
67074;SDS011;53990;50.334;18.640;2023-03-14T14:22:05;12.30;;;8.50;;
67074;SDS011;53990;50.334;18.640;2023-03-14T14:24:34;14.40;;;8.20;;
67074;SDS011;53990;50.334;18.640;2023-03-14T14:29:41;14.90;;;8.80;;
67074;SDS011;53990;50.334;18.640;2023-03-14T14:37:21;14.40;;;9.60;;
67074;SDS011;53990;50.334;18.640;2023-03-14T14:39:51;15.00;;;9.10;;
67074;SDS011;53990;50.334;18.640;2023-03-14T14:42:20;14.60;;;9.10;;
67074;SDS011;53990;50.334;18.640;2023-03-14T14:44:51;14.90;;;8.90;;
67074;SDS011;53990;50.334;18.640;2023-03-14T14:47:21;16.60;;;8.90;;
67074;SDS011;53990;50.334;18.640;2023-03-14T14:49:51;13.00;;;8.40;;
67074;SDS011;53990;50.334;18.640;2023-03-14T14:52:19;14.30;;;9.00;;
67074;SDS011;53990;50.334;18.640;2023-03-14T14:59:49;12.80;;;8.50;;
67074;SDS011;53990;50.334;18.640;2023-03-14T15:02:40;11.00;;;7.80;;
67074;SDS011;53990;50.334;18.640;2023-03-14T15:05:19;14.50;;;7.80;;
67074;SDS011;53990;50.334;18.640;2023-03-14T15:07:47;15.10;;;8.30;;
67074;SDS011;53990;50.334;18.640;2023-03-14T15:10:17;12.10;;;7.40;;
67074;SDS011;53990;50.334;18.640;2023-03-14T15:12:45;14.30;;;7.70;;
67074;SDS011;53990;50.334;18.640;2023-03-14T15:15:15;13.90;;;7.80;;
67074;SDS011;53990;50.334;18.640;2023-03-14T15:17:42;13.30;;;7.60;;
67074;SDS011;53990;50.334;18.640;2023-03-14T15:20:12;12.70;;;8.00;;
67074;SDS011;53990;50.334;18.640;2023-03-14T15:22:41;14.50;;;8.20;;
67074;SDS011;53990;50.334;18.640;2023-03-14T15:25:09;12.20;;;7.80;;
67074;SDS011;53990;50.334;18.640;2023-03-14T15:27:37;14.50;;;8.40;;
67074;SDS011;53990;50.334;18.640;2023-03-14T15:30:12;12.90;;;8.60;;
67074;SDS011;53990;50.334;18.640;2023-03-14T15:32:39;14.50;;;8.90;;
67074;SDS011;53990;50.334;18.640;2023-03-14T15:35:07;17.70;;;12.10;;
67074;SDS011;53990;50.334;18.640;2023-03-14T15:37:35;12.40;;;8.80;;
67074;SDS011;53990;50.334;18.640;2023-03-14T15:40:03;14.30;;;8.90;;
67074;SDS011;53990;50.334;18.640;2023-03-14T15:42:38;14.60;;;8.80;;
67074;SDS011;53990;50.334;18.640;2023-03-14T15:45:06;13.00;;;8.60;;
67074;SDS011;53990;50.334;18.640;2023-03-14T15:47:34;14.00;;;8.60;;
67074;SDS011;53990;50.334;18.640;2023-03-14T15:50:02;12.60;;;8.50;;
67074;SDS011;53990;50.334;18.640;2023-03-14T15:52:29;11.30;;;8.50;;